FW0454 Weather Reports


Display with metric or nautical units.
time (UTC)temp
F
wind
direction
speed
MPH
gust
MPH
rain 1hr
in
rain 24hr
in
rain mn
in
humidity
%
barometer
mb
20180526195824 60 56 3.0 13.0 0.00 0.00 0.00 70 1022.0
20180526195318 60 69 5.0 13.0 0.00 0.00 0.00 69 1021.9
20180526194828 60 31 5.0 12.0 0.00 0.00 0.00 69 1022.0
20180526194316 60 49 6.0 12.0 0.00 0.00 0.00 68 1022.0
20180526193826 60 326 5.0 11.0 0.00 0.00 0.00 67 1022.0
20180526193315 61 338 3.0 9.0 0.00 0.00 0.00 66 1022.0
20180526192825 61 55 3.0 15.0 0.00 0.00 0.00 65 1022.0
20180526192334 61 345 6.0 15.0 0.00 0.00 0.00 64 1022.1
20180526191825 61 61 6.0 14.0 0.00 0.00 0.00 63 1022.1
20180526191315 62 67 6.0 14.0 0.00 0.00 0.00 63 1022.1
20180526190832 62 51 6.0 14.0 0.00 0.00 0.00 62 1022.2
20180526190317 62 59 6.0 14.0 0.00 0.00 0.00 61 1022.1
20180526185826 62 56 4.0 10.0 0.00 0.00 0.00 61 1022.1
20180526185318 62 65 5.0 11.0 0.00 0.00 0.00 59 1022.1
20180526184828 63 75 7.0 13.0 0.00 0.00 0.00 58 1022.1
20180526184318 63 50 7.0 16.0 0.00 0.00 0.00 56 1022.1
20180526183831 63 82 8.0 16.0 0.00 0.00 0.00 55 1022.1
20180526183320 64 60 7.0 14.0 0.00 0.00 0.00 53 1022.1
20180526182816 64 72 6.0 16.0 0.00 0.00 0.00 53 1022.0
20180526182326 65 71 5.0 16.0 0.00 0.00 0.00 53 1022.1
20180526181834 65 94 7.0 15.0 0.00 0.00 0.00 53 1022.0
20180526181325 65 80 7.0 15.0 0.00 0.00 0.00 54 1022.0
20180526180833 65 42 5.0 16.0 0.00 0.00 0.00 53 1022.1
20180526180317 64 59 6.0 16.0 0.00 0.00 0.00 54 1022.2
20180526175827 64 70 6.0 16.0 0.00 0.00 0.00 54 1022.0
20180526175318 64 142 8.0 17.0 0.00 0.00 0.00 53 1022.1
20180526174830 64 97 7.0 17.0 0.00 0.00 0.00 52 1022.1
20180526174325 64 70 6.0 18.0 0.00 0.00 0.00 52 1022.1
20180526173834 64 102 6.0 14.0 0.00 0.00 0.00 53 1022.2
20180526173324 64 40 8.0 18.0 0.00 0.00 0.00 52 1022.2
20180526172833 64 38 7.0 18.0 0.00 0.00 0.00 51 1022.2
20180526172322 65 61 7.0 18.0 0.00 0.00 0.00 50 1022.4
20180526171831 65 84 5.0 17.0 0.00 0.00 0.00 50 1022.4
20180526171322 65 54 7.0 18.0 0.00 0.00 0.00 49 1022.4
20180526170827 66 63 9.0 24.0 0.00 0.00 0.00 49 1022.3
20180526170332 67 339 8.0 24.0 0.00 0.00 0.00 49 1022.4
20180526165825 67 86 6.0 17.0 0.00 0.00 0.00 50 1022.4
20180526165318 67 302 6.0 19.0 0.00 0.00 0.00 52 1022.3
20180526164827 67 63 7.0 19.0 0.00 0.00 0.00 50 1022.3
20180526164318 67 68 9.0 21.0 0.00 0.00 0.00 48 1022.4
20180526163828 68 50 7.0 18.0 0.00 0.00 0.00 53 1022.5
20180526163318 68 60 9.0 14.0 0.00 0.00 0.00 52 1022.4
20180526162831 68 321 4.0 13.0 0.00 0.00 0.00 54 1022.4
20180526162319 67 79 9.0 19.0 0.00 0.00 0.00 51 1022.4
20180526161829 67 136 7.0 19.0 0.00 0.00 0.00 51 1022.5
20180526161322 67 108 8.0 19.0 0.00 0.00 0.00 50 1022.5
20180526160832 67 25 8.0 19.0 0.00 0.00 0.00 49 1022.5
20180526160318 67 57 9.0 23.0 0.00 0.00 0.00 49 1022.6
20180526155828 67 77 8.0 23.0 0.00 0.00 0.00 49 1022.5
20180526155318 68 67 9.0 18.0 0.00 0.00 0.00 50 1022.5
20180526154827 68 36 9.0 17.0 0.00 0.00 0.00 51 1022.5
20180526154318 68 34 8.0 16.0 0.00 0.00 0.00 50 1022.4
20180526153833 68 314 6.0 21.0 0.00 0.00 0.00 52 1022.5
20180526153326 68 62 7.0 21.0 0.00 0.00 0.00 49 1022.5
20180526152820 68 346 6.0 16.0 0.00 0.00 0.00 51 1022.6
20180526152332 68 35 7.0 18.0 0.00 0.00 0.00 53 1022.6
20180526151822 68 84 9.0 18.0 0.00 0.00 0.00 51 1022.6
20180526151334 68 77 8.0 15.0 0.00 0.00 0.00 54 1022.6
20180526150823 68 33 7.0 21.0 0.00 0.00 0.00 54 1022.6
20180526150327 68 67 9.0 21.0 0.00 0.00 0.00 54 1022.8
20180526145817 67 65 9.0 18.0 0.00 0.00 0.00 55 1022.8
20180526145326 67 105 8.0 18.0 0.00 0.00 0.00 56 1022.8
20180526144820 67 69 9.0 21.0 0.00 0.00 0.00 59 1022.7
20180526144329 67 111 10.0 23.0 0.00 0.00 0.00 57 1022.7
20180526143820 67 93 10.0 23.0 0.00 0.00 0.00 57 1022.8
20180526143330 67 26 7.0 14.0 0.00 0.00 0.00 63 1022.7
20180526142819 67 98 8.0 18.0 0.00 0.00 0.00 60 1022.8
20180526142333 67 78 6.0 18.0 0.00 0.00 0.00 61 1022.9
20180526141822 67 84 9.0 18.0 0.00 0.00 0.00 62 1022.9
20180526141333 67 5 8.0 18.0 0.00 0.00 0.00 62 1022.9
20180526140826 67 320 7.0 22.0 0.00 0.00 0.00 65 1022.9
20180526140330 66 81 9.0 22.0 0.00 0.00 0.00 64 1022.9
20180526135819 66 45 8.0 15.0 0.00 0.00 0.00 64 1023.0
20180526135330 66 32 6.0 21.0 0.00 0.00 0.00 66 1023.1
20180526134820 67 53 9.0 21.0 0.00 0.00 0.00 64 1023.1
20180526134328 67 57 8.0 18.0 0.00 0.00 0.00 65 1023.1
20180526133818 66 66 7.0 19.0 0.00 0.00 0.00 67 1022.9
20180526133347 66 62 7.0 19.0 0.00 0.00 0.00 68 1023.1
20180526132819 66 82 7.0 18.0 0.00 0.00 0.00 68 1023.1
20180526132330 65 36 4.0 18.0 0.00 0.00 0.00 69 1023.1
20180526131824 65 349 6.0 15.0 0.00 0.00 0.00 70 1023.2
20180526131316 65 79 5.0 13.0 0.00 0.00 0.00 71 1023.0
20180526130828 64 59 7.0 21.0 0.00 0.00 0.00 69 1023.1
20180526130333 65 63 7.0 21.0 0.00 0.00 0.00 70 1023.1
20180526125822 65 12 5.0 15.0 0.00 0.08 0.00 71 1022.9
20180526125332 65 349 5.0 14.0 0.00 0.08 0.00 71 1022.9
20180526124822 65 64 7.0 14.0 0.00 0.08 0.00 70 1022.9
20180526124313 65 29 5.0 13.0 0.00 0.08 0.00 71 1022.9
20180526123829 64 5 6.0 14.0 0.00 0.08 0.00 70 1022.9
20180526123319 64 46 4.0 16.0 0.00 0.08 0.00 70 1023.0
20180526122828 64 313 4.0 16.0 0.00 0.08 0.00 71 1022.9
20180526122318 64 355 4.0 11.0 0.00 0.08 0.00 70 1022.9
20180526121831 64 298 6.0 15.0 0.00 0.08 0.00 71 1022.9
20180526121323 64 17 7.0 15.0 0.00 0.08 0.00 70 1022.9
20180526120831 64 79 8.0 14.0 0.00 0.08 0.00 70 1023.0
20180526120315 65 62 5.0 18.0 0.00 0.08 0.00 69 1023.0
20180526115825 65 67 7.0 18.0 0.00 0.31 0.00 68 1023.1
20180526115319 65 49 4.0 16.0 0.00 0.31 0.00 69 1023.1
20180526114829 66 69 6.0 16.0 0.00 0.31 0.00 67 1023.0
20180526114319 66 46 6.0 16.0 0.00 0.31 0.00 69 1023.2
20180526113827 65 55 6.0 13.0 0.00 0.31 0.00 70 1023.1
20180526113318 65 355 4.0 15.0 0.00 0.31 0.00 70 1023.1
20180526112831 65 90 7.0 15.0 0.00 0.31 0.00 70 1023.1
20180526112324 64 325 4.0 9.0 0.00 0.31 0.00 71 1023.1
20180526111834 64 116 5.0 10.0 0.00 0.31 0.00 71 1023.1
20180526111328 63 307 4.0 12.0 0.00 0.31 0.00 71 1023.2
20180526110819 64 105 5.0 12.0 0.00 0.31 0.00 71 1023.2
20180526110326 64 21 5.0 13.0 0.00 0.31 0.00 71 1023.2
20180526105818 64 336 5.0 16.0 0.00 0.31 0.00 70 1023.2
20180526105328 65 323 6.0 16.0 0.00 0.31 0.00 68 1023.1
20180526104819 65 355 4.0 18.0 0.00 0.31 0.00 70 1023.1
20180526104312 64 28 4.0 11.0 0.00 0.31 0.00 72 1023.1
20180526103824 64 302 5.0 11.0 0.00 0.31 0.00 74 1023.0
20180526103317 64 355 5.0 13.0 0.00 0.31 0.00 75 1023.1
20180526102827 63 5 5.0 13.0 0.00 0.31 0.00 75 1023.1
20180526102319 62 48 7.0 13.0 0.00 0.31 0.00 74 1023.1
20180526101829 62 355 6.0 12.0 0.00 0.31 0.00 76 1023.1
20180526101318 63 340 4.0 13.0 0.00 0.31 0.00 75 1023.2
20180526100828 62 41 4.0 11.0 0.00 0.31 0.00 78 1023.2
20180526100332 62 346 4.0 11.0 0.00 0.31 0.00 78 1023.1
20180526095823 61 51 6.0 10.0 0.00 0.35 0.00 79 1023.1
20180526095332 60 335 3.0 11.0 0.00 0.35 0.00 80 1023.1
20180526094826 60 77 5.0 9.0 0.00 0.35 0.00 81 1023.0
20180526094315 59 360 3.0 9.0 0.00 0.35 0.00 83 1023.0
20180526093827 59 18 4.0 10.0 0.00 0.35 0.00 82 1023.1
20180526093317 58 327 6.0 11.0 0.00 0.35 0.00 82 1023.1
20180526092830 58 343 7.0 11.0 0.00 0.35 0.00 81 1023.1
20180526092318 58 348 6.0 14.0 0.00 0.35 0.00 81 1023.1
20180526091829 58 355 8.0 14.0 0.00 0.35 0.00 81 1023.1
20180526091317 58 346 5.0 12.0 0.00 0.35 0.00 82 1023.0
20180526090828 58 340 6.0 11.0 0.00 0.35 0.00 82 1023.1
20180526090317 58 344 6.0 11.0 0.00 0.35 0.00 84 1023.1
20180526085828 58 320 3.0 10.0 0.00 0.43 0.00 84 1022.9
20180526085317 57 346 6.0 9.0 0.00 0.43 0.00 84 1023.0
20180526084828 57 355 4.0 8.0 0.00 0.43 0.00 86 1023.0
20180526084318 57 343 3.0 9.0 0.00 0.43 0.00 86 1022.9
20180526083829 57 335 3.0 9.0 0.00 0.43 0.00 86 1022.9
20180526083323 56 76 4.0 8.0 0.00 0.43 0.00 86 1022.9
20180526082814 56 350 6.0 9.0 0.00 0.43 0.00 87 1022.7
20180526082311 56 309 5.0 9.0 0.00 0.43 0.00 87 1022.7
20180526081823 56 348 5.0 9.0 0.00 0.43 0.00 87 1022.7
20180526081334 56 339 6.0 9.0 0.00 0.43 0.00 87 1022.6
20180526080822 56 54 3.0 11.0 0.00 0.43 0.00 88 1022.6
20180526080327 56 355 4.0 11.0 0.00 0.43 0.00 89 1022.6
20180526075817 56 318 3.0 11.0 0.00 0.43 0.00 91 1022.6
20180526075328 55 334 4.0 11.0 0.00 0.43 0.00 91 1022.7
20180526074816 55 355 4.0 11.0 0.00 0.43 0.00 90 1022.7
20180526074326 55 23 5.0 11.0 0.00 0.43 0.00 91 1022.8
20180526073818 55 9 5.0 8.0 0.00 0.43 0.00 92 1022.6
20180526073329 55 11 4.0 8.0 0.00 0.43 0.00 93 1022.8
20180526072823 54 329 3.0 9.0 0.00 0.43 0.00 94 1022.8
20180526072332 54 341 4.0 9.0 0.00 0.43 0.00 94 1022.7
20180526071822 54 48 4.0 9.0 0.00 0.43 0.00 94 1022.8
20180526071314 53 38 5.0 8.0 0.00 0.43 0.00 95 1022.7
20180526070826 53 32 3.0 9.0 0.00 0.43 0.00 95 1022.7
20180526070330 53 22 3.0 9.0 0.00 0.43 0.00 95 1022.7
20180526065824 53 355 3.0 9.0 0.00 0.47 0.00 96 1022.6
20180526065334 53 5 4.0 10.0 0.00 0.47 0.00 96 1022.6
20180526064824 52 334 4.0 10.0 0.00 0.47 0.00 96 1022.5
20180526064332 52 341 3.0 8.0 0.00 0.47 0.00 96 1022.5
20180526063823 52 355 5.0 8.0 0.00 0.47 0.00 96 1022.5
20180526063333 52 35 3.0 10.0 0.00 0.47 0.00 96 1022.6
20180526062823 52 355 5.0 10.0 0.00 0.47 0.00 96 1022.6
20180526062334 52 96 5.0 9.0 0.00 0.47 0.00 96 1022.5
20180526061824 52 96 4.0 10.0 0.00 0.47 0.00 96 1022.5
20180526061318 52 346 5.0 10.0 0.00 0.47 0.00 96 1022.6
20180526060826 52 345 4.0 9.0 0.00 0.47 0.00 97 1022.6
20180526060331 51 19 3.0 8.0 0.00 0.47 0.00 97 1022.5
20180526055821 51 5 4.0 8.0 0.00 0.47 0.00 97 1022.3
20180526055332 51 327 3.0 9.0 0.00 0.47 0.00 97 1022.3
20180526054823 51 76 3.0 9.0 0.00 0.47 0.00 97 1022.3
20180526054315 51 343 3.0 8.0 0.00 0.47 0.00 97 1022.3
20180526053828 51 340 4.0 8.0 0.00 0.47 0.00 97 1022.3
20180526053325 51 79 4.0 9.0 0.00 0.47 0.00 97 1022.3
20180526052815 51 30 4.0 10.0 0.00 0.47 0.00 97 1022.2
20180526052326 51 5 4.0 10.0 0.00 0.47 0.00 97 1022.1
20180526051818 51 5 4.0 10.0 0.00 0.47 0.00 97 1022.0
20180526051329 51 19 4.0 11.0 0.00 0.47 0.00 97 1022.0
20180526050818 51 323 4.0 11.0 0.00 0.47 0.00 97 1022.1
20180526050325 51 56 3.0 10.0 0.00 0.47 0.00 97 1021.9
20180526045834 51 295 4.0 9.0 0.00 0.47 0.00 97 1021.9
20180526045323 51 320 5.0 9.0 0.00 0.47 0.00 97 1021.9
20180526044817 51 342 4.0 9.0 0.00 0.47 0.00 98 1022.0
20180526044327 51 32 4.0 9.0 0.00 0.47 0.00 98 1022.0
20180526043817 51 331 4.0 10.0 0.00 0.47 0.00 98 1021.9
20180526043328 51 355 5.0 10.0 0.00 0.47 0.00 98 1021.9
20180526042819 51 346 3.0 10.0 0.00 0.47 0.00 98 1021.9
20180526042328 51 21 3.0 10.0 0.00 0.47 0.00 98 1021.9
20180526041817 51 348 4.0 9.0 0.00 0.47 0.00 98 1021.9
20180526041330 51 54 2.0 11.0 0.00 0.47 0.00 98 1021.9
20180526040823 51 13 3.0 11.0 0.00 0.47 0.00 98 1021.9
20180526040328 51 17 3.0 7.0 0.00 0.47 0.00 98 1021.8
20180526035818 51 331 3.0 9.0 0.00 0.47 0.00 98 1021.8
20180526035327 51 17 4.0 9.0 0.00 0.47 0.00 98 1021.9
20180526034817 51 35 3.0 10.0 0.00 0.47 0.00 98 1021.9
20180526034326 51 336 4.0 10.0 0.00 0.47 0.00 98 1021.8
20180526033816 51 23 2.0 8.0 0.00 0.47 0.00 98 1021.9
20180526033324 51 61 3.0 9.0 0.00 0.47 0.00 98 1022.0
20180526032813 51 12 3.0 9.0 0.00 0.47 0.00 98 1021.9
20180526032327 51 46 4.0 9.0 0.00 0.47 0.00 98 1021.9
20180526031821 51 42 4.0 8.0 0.00 0.47 0.00 98 1021.9
20180526031327 51 78 4.0 11.0 0.00 0.47 0.00 98 1021.8
20180526030816 51 24 3.0 14.0 0.00 0.47 0.00 98 1021.9
20180526030323 52 338 4.0 14.0 0.00 0.47 0.00 98 1021.8
20180526025816 52 9 4.0 10.0 0.00 0.47 0.00 98 1021.8
20180526025327 52 355 4.0 15.0 0.00 0.47 0.00 98 1021.9
20180526024818 52 63 5.0 15.0 0.00 0.47 0.00 98 1021.8
20180526024316 52 70 3.0 10.0 0.00 0.47 0.00 98 1021.7
20180526023825 52 355 4.0 11.0 0.00 0.47 0.00 98 1021.7
20180526023317 52 92 5.0 11.0 0.00 0.47 0.00 98 1021.6
20180526022828 52 19 3.0 9.0 0.00 0.47 0.00 98 1021.7
20180526022318 52 298 3.0 8.0 0.00 0.47 0.00 98 1021.8
20180526021830 52 57 3.0 8.0 0.00 0.47 0.00 98 1021.8
20180526021320 52 334 2.0 10.0 0.00 0.47 0.00 98 1021.7
20180526020833 52 346 3.0 10.0 0.00 0.47 0.00 98 1021.7
20180526020317 52 355 4.0 10.0 0.00 0.47 0.00 98 1021.7
20180526015816 52 5 4.0 10.0 0.00 0.51 0.00 98 1021.8
20180526015326 52 17 3.0 10.0 0.00 0.51 0.00 98 1021.8
20180526014819 52 355 4.0 10.0 0.00 0.51 0.00 98 1021.8
20180526014329 52 34 4.0 9.0 0.00 0.51 0.00 98 1021.9
20180526013818 52 16 4.0 10.0 0.00 0.51 0.00 98 1021.8
20180526013327 52 11 5.0 10.0 0.00 0.51 0.00 98 1021.8
20180526012819 52 13 5.0 12.0 0.00 0.51 0.00 98 1021.8
20180526012328 52 329 4.0 10.0 0.00 0.51 0.00 98 1021.7
20180526011822 52 334 4.0 11.0 0.00 0.51 0.00 98 1021.8
20180526011331 52 350 4.0 11.0 0.00 0.51 0.00 98 1021.8
20180526010818 52 344 5.0 13.0 0.00 0.51 0.00 98 1021.9
20180526010328 52 329 5.0 10.0 0.00 0.51 0.00 98 1021.9
20180526005818 52 18 5.0 10.0 0.00 0.59 0.00 98 1021.9
20180526005328 52 341 4.0 9.0 0.00 0.59 0.00 98 1021.9
20180526004818 52 9 4.0 9.0 0.00 0.59 0.00 98 1021.9
20180526004328 52 339 3.0 10.0 0.00 0.59 0.00 98 1021.9
20180526003817 52 5 4.0 10.0 0.00 0.59 0.00 98 1021.9
20180526003314 52 355 3.0 11.0 0.00 0.59 0.00 98 1021.7
20180526002827 52 333 6.0 11.0 0.00 0.59 0.00 98 1021.8
20180526002315 52 5 5.0 10.0 0.00 0.59 0.00 98 1021.8
20180526001825 52 22 3.0 10.0 0.00 0.59 0.00 98 1021.7
20180526001334 52 345 4.0 8.0 0.00 0.59 0.00 98 1021.7
20180526000823 52 95 5.0 11.0 0.00 0.59 0.00 98 1021.6
20180526000330 52 5 5.0 11.0 0.00 0.59 0.00 98 1021.7
20180525235823 52 19 4.0 9.0 0.00 0.59 0.12 98 1021.8
20180525235320 52 355 4.0 9.0 0.00 0.59 0.12 98 1021.8
20180525234830 52 360 3.0 8.0 0.00 0.59 0.12 98 1021.8
20180525234318 52 13 4.0 8.0 0.00 0.59 0.12 98 1021.7
20180525233829 52 346 5.0 11.0 0.00 0.59 0.12 98 1021.7
20180525233318 52 348 6.0 10.0 0.00 0.59 0.12 98 1021.7
20180525232828 52 360 5.0 12.0 0.00 0.59 0.12 98 1021.7
20180525232317 52 9 6.0 12.0 0.00 0.59 0.12 98 1021.7
20180525231827 52 11 5.0 10.0 0.00 0.59 0.12 98 1021.7
20180525231317 52 323 4.0 8.0 0.00 0.59 0.12 98 1021.7
20180525230830 52 355 5.0 11.0 0.00 0.59 0.12 98 1021.7
20180525230318 52 350 5.0 11.0 0.00 0.59 0.12 98 1021.7
20180525225830 52 5 5.0 11.0 0.00 0.59 0.12 98 1021.7
20180525225321 52 17 5.0 11.0 0.00 0.59 0.12 98 1021.7
20180525224833 52 360 5.0 9.0 0.00 0.59 0.12 98 1021.6
20180525224323 52 329 5.0 10.0 0.00 0.59 0.12 98 1021.6
20180525223833 53 38 5.0 11.0 0.00 0.59 0.12 98 1021.6
20180525223323 53 5 6.0 11.0 0.00 0.59 0.12 98 1021.6
20180525222816 53 340 6.0 11.0 0.00 0.59 0.12 98 1021.6
20180525222327 53 319 6.0 13.0 0.00 0.59 0.12 98 1021.5
20180525221818 53 332 4.0 13.0 0.00 0.59 0.12 98 1021.5
20180525221328 53 329 4.0 9.0 0.00 0.59 0.12 98 1021.5
20180525220815 53 337 4.0 8.0 0.00 0.59 0.12 98 1021.6
20180525220322 53 5 4.0 7.0 0.00 0.59 0.12 98 1021.6
20180525215833 53 347 4.0 8.0 0.00 0.59 0.12 98 1021.6
20180525215325 53 355 4.0 9.0 0.00 0.59 0.12 98 1021.6
20180525214818 53 24 3.0 9.0 0.00 0.59 0.12 98 1021.5
20180525214334 53 88 3.0 9.0 0.00 0.59 0.12 98 1021.6
20180525213825 53 5 4.0 9.0 0.00 0.59 0.12 98 1021.6
20180525213333 53 349 4.0 10.0 0.00 0.59 0.12 97 1021.5
20180525212824 53 275 6.0 10.0 0.00 0.59 0.12 97 1021.5
20180525212333 53 320 4.0 10.0 0.00 0.59 0.12 97 1021.5
20180525211823 53 329 4.0 13.0 0.00 0.59 0.12 98 1021.5
20180525211333 53 15 6.0 13.0 0.00 0.59 0.12 98 1021.6
20180525210823 53 5 4.0 10.0 0.00 0.59 0.12 98 1021.4
20180525210328 53 355 5.0 11.0 0.00 0.59 0.12 97 1021.3
20180525205823 53 318 3.0 11.0 0.00 0.59 0.12 97 1021.4
20180525205333 53 307 4.0 11.0 0.00 0.59 0.12 97 1021.3
20180525204822 53 342 5.0 9.0 0.00 0.59 0.12 98 1021.3
20180525204316 54 339 3.0 9.0 0.00 0.59 0.12 98 1021.2
20180525203826 54 15 4.0 8.0 0.00 0.59 0.12 97 1021.2
20180525203316 54 355 3.0 10.0 0.00 0.59 0.12 97 1021.1
20180525202829 54 26 4.0 10.0 0.00 0.59 0.12 98 1021.1
20180525202322 54 351 3.0 7.0 0.00 0.59 0.12 98 1021.0
20180525201815 54 360 2.0 15.0 0.00 0.59 0.12 98 1021.0
20180525201326 54 350 3.0 15.0 0.00 0.59 0.12 98 1020.9
20180525200834 54 360 3.0 8.0 0.00 0.59 0.12 98 1020.9
20180525200319 54 87 2.0 10.0 0.00 0.59 0.12 98 1020.8